sensor_id;sensor_type;location;lat;lon;timestamp;P1;durP1;ratioP1;P2;durP2;ratioP2
22211;SDS011;11275;52.488;13.462;2022-10-01T00:00:25;9.07;;;7.75;;
22211;SDS011;11275;52.488;13.462;2022-10-01T00:02:51;9.02;;;7.43;;
22211;SDS011;11275;52.488;13.462;2022-10-01T00:05:18;9.02;;;8.07;;
22211;SDS011;11275;52.488;13.462;2022-10-01T00:07:45;10.20;;;9.23;;
22211;SDS011;11275;52.488;13.462;2022-10-01T00:10:12;9.20;;;8.30;;
22211;SDS011;11275;52.488;13.462;2022-10-01T00:12:41;8.60;;;7.68;;
22211;SDS011;11275;52.488;13.462;2022-10-01T00:15:13;9.20;;;7.63;;
22211;SDS011;11275;52.488;13.462;2022-10-01T00:17:40;8.45;;;7.53;;
22211;SDS011;11275;52.488;13.462;2022-10-01T00:20:07;8.90;;;8.00;;
22211;SDS011;11275;52.488;13.462;2022-10-01T00:22:35;9.02;;;8.13;;
22211;SDS011;11275;52.488;13.462;2022-10-01T00:25:01;8.95;;;8.05;;
22211;SDS011;11275;52.488;13.462;2022-10-01T00:27:27;8.32;;;7.15;;
22211;SDS011;11275;52.488;13.462;2022-10-01T00:29:53;8.10;;;7.30;;
22211;SDS011;11275;52.488;13.462;2022-10-01T00:32:22;8.68;;;7.88;;
22211;SDS011;11275;52.488;13.462;2022-10-01T00:34:48;8.13;;;7.32;;
22211;SDS011;11275;52.488;13.462;2022-10-01T00:37:14;9.88;;;7.88;;
22211;SDS011;11275;52.488;13.462;2022-10-01T00:39:41;9.07;;;7.95;;
22211;SDS011;11275;52.488;13.462;2022-10-01T00:44:49;12.68;;;8.25;;
22211;SDS011;11275;52.488;13.462;2022-10-01T00:47:34;9.02;;;7.75;;
22211;SDS011;11275;52.488;13.462;2022-10-01T00:50:07;9.75;;;7.95;;
22211;SDS011;11275;52.488;13.462;2022-10-01T00:52:40;8.60;;;7.78;;
22211;SDS011;11275;52.488;13.462;2022-10-01T00:55:09;8.55;;;7.72;;
22211;SDS011;11275;52.488;13.462;2022-10-01T00:57:49;8.65;;;7.75;;
22211;SDS011;11275;52.488;13.462;2022-10-01T01:00:15;9.20;;;8.10;;
22211;SDS011;11275;52.488;13.462;2022-10-01T01:02:41;8.73;;;7.65;;
22211;SDS011;11275;52.488;13.462;2022-10-01T01:05:07;8.70;;;7.90;;
22211;SDS011;11275;52.488;13.462;2022-10-01T01:07:38;9.10;;;8.20;;
22211;SDS011;11275;52.488;13.462;2022-10-01T01:10:08;11.00;;;8.10;;
22211;SDS011;11275;52.488;13.462;2022-10-01T01:15:33;9.52;;;8.52;;
22211;SDS011;11275;52.488;13.462;2022-10-01T01:18:03;9.32;;;8.35;;
22211;SDS011;11275;52.488;13.462;2022-10-01T01:29:25;9.27;;;7.90;;
22211;SDS011;11275;52.488;13.462;2022-10-01T01:32:04;9.38;;;8.43;;
22211;SDS011;11275;52.488;13.462;2022-10-01T01:34:36;9.20;;;8.05;;
22211;SDS011;11275;52.488;13.462;2022-10-01T01:39:37;9.60;;;8.60;;
22211;SDS011;11275;52.488;13.462;2022-10-01T01:42:07;11.77;;;8.88;;
22211;SDS011;11275;52.488;13.462;2022-10-01T01:44:38;10.40;;;8.68;;
22211;SDS011;11275;52.488;13.462;2022-10-01T01:47:08;11.63;;;8.82;;
22211;SDS011;11275;52.488;13.462;2022-10-01T01:49:37;11.40;;;9.98;;
22211;SDS011;11275;52.488;13.462;2022-10-01T01:52:04;11.52;;;9.30;;
22211;SDS011;11275;52.488;13.462;2022-10-01T01:54:37;10.27;;;9.15;;
22211;SDS011;11275;52.488;13.462;2022-10-01T01:57:04;11.25;;;10.05;;
22211;SDS011;11275;52.488;13.462;2022-10-01T01:59:31;11.13;;;10.02;;
22211;SDS011;11275;52.488;13.462;2022-10-01T02:01:58;10.93;;;9.50;;
22211;SDS011;11275;52.488;13.462;2022-10-01T02:04:31;10.43;;;9.25;;
22211;SDS011;11275;52.488;13.462;2022-10-01T02:15:24;12.85;;;11.38;;
22211;SDS011;11275;52.488;13.462;2022-10-01T02:20:50;10.85;;;9.80;;
22211;SDS011;11275;52.488;13.462;2022-10-01T02:23:28;11.10;;;10.00;;
22211;SDS011;11275;52.488;13.462;2022-10-01T02:25:58;12.68;;;11.18;;
22211;SDS011;11275;52.488;13.462;2022-10-01T02:28:33;11.52;;;10.43;;
22211;SDS011;11275;52.488;13.462;2022-10-01T02:31:02;10.63;;;9.52;;
22211;SDS011;11275;52.488;13.462;2022-10-01T02:33:29;11.90;;;10.40;;
22211;SDS011;11275;52.488;13.462;2022-10-01T02:35:57;11.93;;;10.57;;
22211;SDS011;11275;52.488;13.462;2022-10-01T02:38:25;12.23;;;11.02;;
22211;SDS011;11275;52.488;13.462;2022-10-01T02:40:53;12.05;;;10.75;;
22211;SDS011;11275;52.488;13.462;2022-10-01T02:43:24;12.55;;;10.88;;
22211;SDS011;11275;52.488;13.462;2022-10-01T02:45:57;11.93;;;10.10;;
22211;SDS011;11275;52.488;13.462;2022-10-01T02:48:27;12.75;;;11.15;;
22211;SDS011;11275;52.488;13.462;2022-10-01T02:50:56;12.65;;;11.50;;
22211;SDS011;11275;52.488;13.462;2022-10-01T02:53:40;11.50;;;10.40;;
22211;SDS011;11275;52.488;13.462;2022-10-01T02:56:09;12.52;;;11.23;;
22211;SDS011;11275;52.488;13.462;2022-10-01T02:58:38;13.18;;;11.93;;
22211;SDS011;11275;52.488;13.462;2022-10-01T03:01:05;13.48;;;11.90;;
22211;SDS011;11275;52.488;13.462;2022-10-01T03:03:31;13.63;;;11.32;;
22211;SDS011;11275;52.488;13.462;2022-10-01T03:05:56;11.57;;;10.48;;
22211;SDS011;11275;52.488;13.462;2022-10-01T03:08:22;11.48;;;10.25;;
22211;SDS011;11275;52.488;13.462;2022-10-01T03:10:47;11.55;;;10.35;;
22211;SDS011;11275;52.488;13.462;2022-10-01T03:13:14;12.73;;;11.38;;
22211;SDS011;11275;52.488;13.462;2022-10-01T03:15:44;11.90;;;10.60;;
22211;SDS011;11275;52.488;13.462;2022-10-01T03:18:10;12.35;;;11.15;;
22211;SDS011;11275;52.488;13.462;2022-10-01T03:20:35;12.70;;;11.40;;
22211;SDS011;11275;52.488;13.462;2022-10-01T03:23:01;11.40;;;10.20;;
22211;SDS011;11275;52.488;13.462;2022-10-01T03:25:26;12.20;;;11.00;;
22211;SDS011;11275;52.488;13.462;2022-10-01T03:27:52;11.95;;;10.75;;
22211;SDS011;11275;52.488;13.462;2022-10-01T03:30:18;13.13;;;11.75;;
22211;SDS011;11275;52.488;13.462;2022-10-01T03:32:43;13.32;;;11.88;;
22211;SDS011;11275;52.488;13.462;2022-10-01T03:35:09;11.85;;;10.75;;
22211;SDS011;11275;52.488;13.462;2022-10-01T03:37:34;12.45;;;11.15;;
22211;SDS011;11275;52.488;13.462;2022-10-01T03:40:00;12.73;;;9.93;;
22211;SDS011;11275;52.488;13.462;2022-10-01T03:42:26;11.07;;;9.60;;
22211;SDS011;11275;52.488;13.462;2022-10-01T03:44:51;13.93;;;11.55;;
22211;SDS011;11275;52.488;13.462;2022-10-01T03:47:17;12.80;;;11.52;;
22211;SDS011;11275;52.488;13.462;2022-10-01T03:49:42;13.23;;;10.73;;
22211;SDS011;11275;52.488;13.462;2022-10-01T03:52:08;11.82;;;10.63;;
22211;SDS011;11275;52.488;13.462;2022-10-01T03:54:33;12.80;;;11.43;;
22211;SDS011;11275;52.488;13.462;2022-10-01T03:56:59;11.88;;;10.68;;
22211;SDS011;11275;52.488;13.462;2022-10-01T03:59:24;12.23;;;10.95;;
22211;SDS011;11275;52.488;13.462;2022-10-01T04:01:51;12.02;;;10.77;;
22211;SDS011;11275;52.488;13.462;2022-10-01T04:04:17;11.57;;;10.10;;
22211;SDS011;11275;52.488;13.462;2022-10-01T04:06:43;11.07;;;10.07;;
22211;SDS011;11275;52.488;13.462;2022-10-01T04:09:08;13.57;;;12.00;;
22211;SDS011;11275;52.488;13.462;2022-10-01T04:11:34;11.63;;;10.43;;
22211;SDS011;11275;52.488;13.462;2022-10-01T04:14:00;11.50;;;10.45;;
22211;SDS011;11275;52.488;13.462;2022-10-01T04:16:26;12.00;;;10.55;;
22211;SDS011;11275;52.488;13.462;2022-10-01T04:18:51;11.30;;;10.20;;
22211;SDS011;11275;52.488;13.462;2022-10-01T04:21:18;11.85;;;8.85;;
22211;SDS011;11275;52.488;13.462;2022-10-01T04:23:43;9.77;;;8.77;;
22211;SDS011;11275;52.488;13.462;2022-10-01T04:26:09;11.82;;;9.55;;
22211;SDS011;11275;52.488;13.462;2022-10-01T04:28:35;9.70;;;8.77;;
22211;SDS011;11275;52.488;13.462;2022-10-01T04:31:00;11.45;;;9.77;;
22211;SDS011;11275;52.488;13.462;2022-10-01T04:33:44;10.60;;;9.07;;
22211;SDS011;11275;52.488;13.462;2022-10-01T04:36:10;10.57;;;8.45;;
22211;SDS011;11275;52.488;13.462;2022-10-01T04:38:36;10.40;;;8.52;;
22211;SDS011;11275;52.488;13.462;2022-10-01T04:41:02;9.38;;;8.38;;
22211;SDS011;11275;52.488;13.462;2022-10-01T04:43:27;10.57;;;8.00;;
22211;SDS011;11275;52.488;13.462;2022-10-01T04:45:53;8.05;;;7.22;;
22211;SDS011;11275;52.488;13.462;2022-10-01T04:48:18;8.30;;;7.47;;
22211;SDS011;11275;52.488;13.462;2022-10-01T04:50:45;8.63;;;7.18;;
22211;SDS011;11275;52.488;13.462;2022-10-01T04:53:10;7.32;;;6.63;;
22211;SDS011;11275;52.488;13.462;2022-10-01T04:55:36;8.32;;;7.00;;
22211;SDS011;11275;52.488;13.462;2022-10-01T04:58:02;6.75;;;6.07;;
22211;SDS011;11275;52.488;13.462;2022-10-01T05:00:27;9.45;;;6.82;;
22211;SDS011;11275;52.488;13.462;2022-10-01T05:02:53;8.15;;;6.93;;
22211;SDS011;11275;52.488;13.462;2022-10-01T05:05:20;8.15;;;6.22;;
22211;SDS011;11275;52.488;13.462;2022-10-01T05:07:47;8.45;;;6.55;;
22211;SDS011;11275;52.488;13.462;2022-10-01T05:10:18;7.18;;;5.82;;
22211;SDS011;11275;52.488;13.462;2022-10-01T05:12:45;7.75;;;6.45;;
22211;SDS011;11275;52.488;13.462;2022-10-01T05:15:11;7.18;;;6.20;;
22211;SDS011;11275;52.488;13.462;2022-10-01T05:17:37;7.00;;;6.30;;
22211;SDS011;11275;52.488;13.462;2022-10-01T05:20:04;7.03;;;6.28;;
22211;SDS011;11275;52.488;13.462;2022-10-01T05:22:31;8.73;;;5.88;;
22211;SDS011;11275;52.488;13.462;2022-10-01T05:24:57;6.75;;;5.95;;
22211;SDS011;11275;52.488;13.462;2022-10-01T05:27:24;6.80;;;5.97;;
22211;SDS011;11275;52.488;13.462;2022-10-01T05:29:54;7.90;;;5.80;;
22211;SDS011;11275;52.488;13.462;2022-10-01T05:32:20;7.05;;;5.63;;
22211;SDS011;11275;52.488;13.462;2022-10-01T05:34:47;6.28;;;5.53;;
22211;SDS011;11275;52.488;13.462;2022-10-01T05:37:13;6.10;;;5.18;;
22211;SDS011;11275;52.488;13.462;2022-10-01T05:39:39;6.55;;;5.35;;
22211;SDS011;11275;52.488;13.462;2022-10-01T05:42:04;6.80;;;5.25;;
22211;SDS011;11275;52.488;13.462;2022-10-01T05:44:30;6.07;;;5.47;;
22211;SDS011;11275;52.488;13.462;2022-10-01T05:47:01;9.82;;;6.05;;
22211;SDS011;11275;52.488;13.462;2022-10-01T05:49:30;6.65;;;5.50;;
22211;SDS011;11275;52.488;13.462;2022-10-01T05:51:57;7.30;;;5.65;;
22211;SDS011;11275;52.488;13.462;2022-10-01T05:54:24;5.95;;;5.22;;
22211;SDS011;11275;52.488;13.462;2022-10-01T05:56:51;6.18;;;5.40;;
22211;SDS011;11275;52.488;13.462;2022-10-01T05:59:17;6.63;;;4.90;;
22211;SDS011;11275;52.488;13.462;2022-10-01T06:01:43;7.07;;;5.22;;
22211;SDS011;11275;52.488;13.462;2022-10-01T06:04:08;5.47;;;4.70;;
22211;SDS011;11275;52.488;13.462;2022-10-01T06:06:35;8.18;;;5.20;;
22211;SDS011;11275;52.488;13.462;2022-10-01T06:09:00;7.10;;;4.97;;
22211;SDS011;11275;52.488;13.462;2022-10-01T06:11:26;6.82;;;4.72;;
22211;SDS011;11275;52.488;13.462;2022-10-01T06:13:51;6.50;;;4.88;;
22211;SDS011;11275;52.488;13.462;2022-10-01T06:16:17;5.75;;;4.63;;
22211;SDS011;11275;52.488;13.462;2022-10-01T06:18:45;5.13;;;4.30;;
22211;SDS011;11275;52.488;13.462;2022-10-01T06:21:12;5.70;;;4.80;;
22211;SDS011;11275;52.488;13.462;2022-10-01T06:23:38;5.80;;;4.47;;
22211;SDS011;11275;52.488;13.462;2022-10-01T06:26:04;4.90;;;4.40;;
22211;SDS011;11275;52.488;13.462;2022-10-01T06:28:30;5.20;;;4.70;;
22211;SDS011;11275;52.488;13.462;2022-10-01T06:30:57;5.53;;;4.85;;
22211;SDS011;11275;52.488;13.462;2022-10-01T06:33:25;4.78;;;4.30;;
22211;SDS011;11275;52.488;13.462;2022-10-01T06:35:51;5.25;;;4.50;;
22211;SDS011;11275;52.488;13.462;2022-10-01T06:38:17;6.75;;;4.45;;
22211;SDS011;11275;52.488;13.462;2022-10-01T06:40:49;5.10;;;4.40;;
22211;SDS011;11275;52.488;13.462;2022-10-01T06:43:20;6.50;;;5.07;;
22211;SDS011;11275;52.488;13.462;2022-10-01T06:45:46;5.30;;;4.38;;
22211;SDS011;11275;52.488;13.462;2022-10-01T06:48:13;5.50;;;4.35;;
22211;SDS011;11275;52.488;13.462;2022-10-01T06:50:40;5.43;;;4.93;;
22211;SDS011;11275;52.488;13.462;2022-10-01T06:53:06;7.18;;;4.70;;
22211;SDS011;11275;52.488;13.462;2022-10-01T06:55:33;5.72;;;4.65;;
22211;SDS011;11275;52.488;13.462;2022-10-01T06:58:01;7.80;;;4.30;;
22211;SDS011;11275;52.488;13.462;2022-10-01T07:00:29;5.63;;;4.40;;
22211;SDS011;11275;52.488;13.462;2022-10-01T07:02:56;5.30;;;4.10;;
22211;SDS011;11275;52.488;13.462;2022-10-01T07:05:22;4.88;;;4.05;;
22211;SDS011;11275;52.488;13.462;2022-10-01T07:07:49;6.28;;;4.15;;
22211;SDS011;11275;52.488;13.462;2022-10-01T07:10:15;6.20;;;4.38;;
22211;SDS011;11275;52.488;13.462;2022-10-01T07:12:43;5.57;;;4.40;;
22211;SDS011;11275;52.488;13.462;2022-10-01T07:15:10;5.40;;;4.45;;
22211;SDS011;11275;52.488;13.462;2022-10-01T07:17:41;7.20;;;4.70;;
22211;SDS011;11275;52.488;13.462;2022-10-01T07:20:08;5.53;;;4.25;;
22211;SDS011;11275;52.488;13.462;2022-10-01T07:22:34;4.82;;;4.32;;
22211;SDS011;11275;52.488;13.462;2022-10-01T07:25:00;6.47;;;4.30;;
22211;SDS011;11275;52.488;13.462;2022-10-01T07:27:26;4.95;;;4.30;;
22211;SDS011;11275;52.488;13.462;2022-10-01T07:29:52;4.85;;;4.35;;
22211;SDS011;11275;52.488;13.462;2022-10-01T07:32:17;6.55;;;4.82;;
22211;SDS011;11275;52.488;13.462;2022-10-01T07:34:43;5.00;;;4.18;;
22211;SDS011;11275;52.488;13.462;2022-10-01T07:37:09;7.10;;;4.82;;
22211;SDS011;11275;52.488;13.462;2022-10-01T07:39:35;4.90;;;4.35;;
22211;SDS011;11275;52.488;13.462;2022-10-01T07:42:01;5.03;;;3.88;;
22211;SDS011;11275;52.488;13.462;2022-10-01T07:44:27;4.75;;;4.22;;
22211;SDS011;11275;52.488;13.462;2022-10-01T07:46:53;6.10;;;4.50;;
22211;SDS011;11275;52.488;13.462;2022-10-01T07:49:19;4.90;;;4.40;;
22211;SDS011;11275;52.488;13.462;2022-10-01T07:51:45;6.28;;;4.50;;
22211;SDS011;11275;52.488;13.462;2022-10-01T07:54:12;5.60;;;4.72;;
22211;SDS011;11275;52.488;13.462;2022-10-01T07:56:38;5.53;;;4.10;;
22211;SDS011;11275;52.488;13.462;2022-10-01T07:59:05;6.75;;;4.55;;
22211;SDS011;11275;52.488;13.462;2022-10-01T08:01:31;5.85;;;4.20;;
22211;SDS011;11275;52.488;13.462;2022-10-01T08:03:57;5.30;;;4.28;;
22211;SDS011;11275;52.488;13.462;2022-10-01T08:06:23;5.43;;;4.53;;
22211;SDS011;11275;52.488;13.462;2022-10-01T08:08:49;4.95;;;4.05;;
22211;SDS011;11275;52.488;13.462;2022-10-01T08:11:14;5.90;;;4.05;;
22211;SDS011;11275;52.488;13.462;2022-10-01T08:13:42;5.75;;;4.20;;
22211;SDS011;11275;52.488;13.462;2022-10-01T08:16:11;5.00;;;3.90;;
22211;SDS011;11275;52.488;13.462;2022-10-01T08:18:37;4.65;;;4.03;;
22211;SDS011;11275;52.488;13.462;2022-10-01T08:21:06;4.95;;;3.88;;
22211;SDS011;11275;52.488;13.462;2022-10-01T08:23:32;4.80;;;4.30;;
22211;SDS011;11275;52.488;13.462;2022-10-01T08:25:59;8.50;;;4.35;;
22211;SDS011;11275;52.488;13.462;2022-10-01T08:28:26;4.90;;;4.00;;
22211;SDS011;11275;52.488;13.462;2022-10-01T08:30:51;6.20;;;4.18;;
22211;SDS011;11275;52.488;13.462;2022-10-01T08:33:17;5.30;;;4.00;;
22211;SDS011;11275;52.488;13.462;2022-10-01T08:35:42;4.30;;;3.60;;
22211;SDS011;11275;52.488;13.462;2022-10-01T08:38:08;4.40;;;4.00;;
22211;SDS011;11275;52.488;13.462;2022-10-01T08:40:44;5.82;;;4.40;;
22211;SDS011;11275;52.488;13.462;2022-10-01T08:45:50;4.35;;;3.70;;
22211;SDS011;11275;52.488;13.462;2022-10-01T08:48:21;5.10;;;3.83;;
22211;SDS011;11275;52.488;13.462;2022-10-01T08:50:54;5.32;;;3.70;;
22211;SDS011;11275;52.488;13.462;2022-10-01T08:56:17;4.65;;;3.42;;
22211;SDS011;11275;52.488;13.462;2022-10-01T08:58:49;4.10;;;3.60;;
22211;SDS011;11275;52.488;13.462;2022-10-01T09:01:24;4.57;;;3.63;;
22211;SDS011;11275;52.488;13.462;2022-10-01T09:03:50;4.43;;;3.10;;
22211;SDS011;11275;52.488;13.462;2022-10-01T09:06:20;4.20;;;3.25;;
22211;SDS011;11275;52.488;13.462;2022-10-01T09:12:11;5.22;;;3.63;;
22211;SDS011;11275;52.488;13.462;2022-10-01T09:14:53;4.45;;;3.10;;
22211;SDS011;11275;52.488;13.462;2022-10-01T09:20:25;4.60;;;2.70;;
22211;SDS011;11275;52.488;13.462;2022-10-01T09:25:36;3.90;;;2.45;;
22211;SDS011;11275;52.488;13.462;2022-10-01T09:28:10;5.38;;;3.03;;
22211;SDS011;11275;52.488;13.462;2022-10-01T09:30:43;2.88;;;2.45;;
22211;SDS011;11275;52.488;13.462;2022-10-01T09:33:32;2.95;;;2.42;;
22211;SDS011;11275;52.488;13.462;2022-10-01T09:38:32;4.05;;;2.88;;
22211;SDS011;11275;52.488;13.462;2022-10-01T09:41:02;4.07;;;2.17;;
22211;SDS011;11275;52.488;13.462;2022-10-01T09:43:29;3.92;;;1.80;;
22211;SDS011;11275;52.488;13.462;2022-10-01T09:46:01;4.30;;;2.05;;
22211;SDS011;11275;52.488;13.462;2022-10-01T09:49:07;3.60;;;1.90;;
22211;SDS011;11275;52.488;13.462;2022-10-01T09:51:43;4.05;;;1.85;;
22211;SDS011;11275;52.488;13.462;2022-10-01T09:54:15;2.30;;;1.60;;
22211;SDS011;11275;52.488;13.462;2022-10-01T09:56:47;2.30;;;1.48;;
22211;SDS011;11275;52.488;13.462;2022-10-01T09:59:21;2.20;;;1.40;;
22211;SDS011;11275;52.488;13.462;2022-10-01T10:01:53;3.42;;;1.20;;
22211;SDS011;11275;52.488;13.462;2022-10-01T10:04:25;1.90;;;1.30;;
22211;SDS011;11275;52.488;13.462;2022-10-01T10:06:51;1.60;;;1.13;;
22211;SDS011;11275;52.488;13.462;2022-10-01T10:09:28;1.65;;;1.00;;
22211;SDS011;11275;52.488;13.462;2022-10-01T10:11:56;1.83;;;1.20;;
22211;SDS011;11275;52.488;13.462;2022-10-01T10:14:30;2.60;;;1.20;;
22211;SDS011;11275;52.488;13.462;2022-10-01T10:17:12;2.13;;;1.20;;
22211;SDS011;11275;52.488;13.462;2022-10-01T10:19:48;2.40;;;1.50;;
22211;SDS011;11275;52.488;13.462;2022-10-01T10:22:23;2.08;;;1.45;;
22211;SDS011;11275;52.488;13.462;2022-10-01T10:24:51;2.35;;;1.60;;
22211;SDS011;11275;52.488;13.462;2022-10-01T10:27:24;2.63;;;1.65;;
22211;SDS011;11275;52.488;13.462;2022-10-01T10:30:06;3.25;;;1.83;;
22211;SDS011;11275;52.488;13.462;2022-10-01T10:32:39;2.35;;;1.83;;
22211;SDS011;11275;52.488;13.462;2022-10-01T10:35:07;2.75;;;1.80;;
22211;SDS011;11275;52.488;13.462;2022-10-01T10:37:43;5.40;;;2.00;;
22211;SDS011;11275;52.488;13.462;2022-10-01T10:40:16;4.00;;;2.10;;
22211;SDS011;11275;52.488;13.462;2022-10-01T10:42:48;2.50;;;2.00;;
22211;SDS011;11275;52.488;13.462;2022-10-01T10:45:17;4.22;;;2.35;;
22211;SDS011;11275;52.488;13.462;2022-10-01T10:47:46;2.63;;;2.40;;
22211;SDS011;11275;52.488;13.462;2022-10-01T10:52:56;4.03;;;2.30;;
22211;SDS011;11275;52.488;13.462;2022-10-01T10:55:23;4.15;;;2.72;;
22211;SDS011;11275;52.488;13.462;2022-10-01T10:57:49;2.78;;;2.58;;
22211;SDS011;11275;52.488;13.462;2022-10-01T11:00:16;3.75;;;2.65;;
22211;SDS011;11275;52.488;13.462;2022-10-01T11:02:56;4.28;;;3.00;;
22211;SDS011;11275;52.488;13.462;2022-10-01T11:05:27;3.47;;;2.70;;
22211;SDS011;11275;52.488;13.462;2022-10-01T11:08:02;3.03;;;2.70;;
22211;SDS011;11275;52.488;13.462;2022-10-01T11:10:42;4.07;;;3.10;;
22211;SDS011;11275;52.488;13.462;2022-10-01T11:16:11;3.92;;;2.85;;
22211;SDS011;11275;52.488;13.462;2022-10-01T11:29:49;3.47;;;2.78;;
22211;SDS011;11275;52.488;13.462;2022-10-01T11:35:17;5.38;;;2.88;;
22211;SDS011;11275;52.488;13.462;2022-10-01T11:40:44;3.00;;;2.63;;
22211;SDS011;11275;52.488;13.462;2022-10-01T11:45:51;3.05;;;2.50;;
22211;SDS011;11275;52.488;13.462;2022-10-01T11:48:43;3.38;;;2.30;;
22211;SDS011;11275;52.488;13.462;2022-10-01T11:51:25;2.33;;;2.13;;
22211;SDS011;11275;52.488;13.462;2022-10-01T11:53:59;3.05;;;2.25;;
22211;SDS011;11275;52.488;13.462;2022-10-01T11:56:32;3.95;;;2.70;;
22211;SDS011;11275;52.488;13.462;2022-10-01T12:02:05;2.50;;;2.30;;
22211;SDS011;11275;52.488;13.462;2022-10-01T12:04:56;2.95;;;2.60;;
22211;SDS011;11275;52.488;13.462;2022-10-01T12:20:50;2.63;;;2.10;;
22211;SDS011;11275;52.488;13.462;2022-10-01T12:23:19;2.28;;;2.00;;
22211;SDS011;11275;52.488;13.462;2022-10-01T12:28:48;2.03;;;1.88;;
22211;SDS011;11275;52.488;13.462;2022-10-01T12:31:43;2.10;;;1.67;;
22211;SDS011;11275;52.488;13.462;2022-10-01T12:37:08;3.58;;;2.10;;
22211;SDS011;11275;52.488;13.462;2022-10-01T12:42:44;2.42;;;2.10;;
22211;SDS011;11275;52.488;13.462;2022-10-01T12:53:22;3.00;;;2.50;;
22211;SDS011;11275;52.488;13.462;2022-10-01T13:01:05;2.72;;;1.92;;
22211;SDS011;11275;52.488;13.462;2022-10-01T13:06:29;3.67;;;1.92;;
22211;SDS011;11275;52.488;13.462;2022-10-01T13:09:18;2.77;;;2.37;;
22211;SDS011;11275;52.488;13.462;2022-10-01T13:14:37;2.60;;;2.00;;
22211;SDS011;11275;52.488;13.462;2022-10-01T13:20:26;3.10;;;2.03;;
22211;SDS011;11275;52.488;13.462;2022-10-01T13:23:15;3.28;;;2.13;;
22211;SDS011;11275;52.488;13.462;2022-10-01T13:31:11;3.65;;;2.50;;
22211;SDS011;11275;52.488;13.462;2022-10-01T13:33:38;2.75;;;2.17;;
22211;SDS011;11275;52.488;13.462;2022-10-01T13:36:05;3.00;;;2.70;;
22211;SDS011;11275;52.488;13.462;2022-10-01T13:38:42;2.30;;;2.10;;
22211;SDS011;11275;52.488;13.462;2022-10-01T13:41:16;3.63;;;2.25;;
22211;SDS011;11275;52.488;13.462;2022-10-01T13:43:50;3.80;;;2.15;;
22211;SDS011;11275;52.488;13.462;2022-10-01T13:46:22;4.00;;;2.28;;
22211;SDS011;11275;52.488;13.462;2022-10-01T13:48:59;3.45;;;2.05;;
22211;SDS011;11275;52.488;13.462;2022-10-01T13:51:36;2.53;;;2.20;;
22211;SDS011;11275;52.488;13.462;2022-10-01T13:54:05;4.13;;;2.10;;
22211;SDS011;11275;52.488;13.462;2022-10-01T13:56:39;2.47;;;2.10;;
22211;SDS011;11275;52.488;13.462;2022-10-01T14:02:26;2.05;;;1.88;;
22211;SDS011;11275;52.488;13.462;2022-10-01T14:04:56;2.67;;;2.00;;
22211;SDS011;11275;52.488;13.462;2022-10-01T14:07:44;3.38;;;2.05;;
22211;SDS011;11275;52.488;13.462;2022-10-01T14:10:12;2.28;;;1.90;;
22211;SDS011;11275;52.488;13.462;2022-10-01T14:12:40;2.22;;;1.90;;
22211;SDS011;11275;52.488;13.462;2022-10-01T14:15:43;2.40;;;1.75;;
22211;SDS011;11275;52.488;13.462;2022-10-01T14:18:25;2.53;;;2.00;;
22211;SDS011;11275;52.488;13.462;2022-10-01T14:23:46;1.98;;;1.77;;
22211;SDS011;11275;52.488;13.462;2022-10-01T14:26:35;2.28;;;1.63;;
22211;SDS011;11275;52.488;13.462;2022-10-01T14:31:56;1.75;;;1.58;;
22211;SDS011;11275;52.488;13.462;2022-10-01T14:37:17;1.90;;;1.70;;
22211;SDS011;11275;52.488;13.462;2022-10-01T14:39:43;2.85;;;2.30;;
22211;SDS011;11275;52.488;13.462;2022-10-01T14:42:16;2.25;;;2.05;;
22211;SDS011;11275;52.488;13.462;2022-10-01T14:44:43;2.92;;;2.17;;
22211;SDS011;11275;52.488;13.462;2022-10-01T14:47:28;3.78;;;2.10;;
22211;SDS011;11275;52.488;13.462;2022-10-01T14:50:07;2.55;;;2.15;;
22211;SDS011;11275;52.488;13.462;2022-10-01T14:52:35;3.30;;;2.10;;
22211;SDS011;11275;52.488;13.462;2022-10-01T14:57:45;2.88;;;2.08;;
22211;SDS011;11275;52.488;13.462;2022-10-01T15:00:15;3.60;;;2.17;;
22211;SDS011;11275;52.488;13.462;2022-10-01T15:02:46;3.03;;;2.03;;
22211;SDS011;11275;52.488;13.462;2022-10-01T15:05:30;3.25;;;2.20;;
22211;SDS011;11275;52.488;13.462;2022-10-01T15:10:58;2.65;;;2.25;;
22211;SDS011;11275;52.488;13.462;2022-10-01T15:13:28;2.90;;;1.95;;
22211;SDS011;11275;52.488;13.462;2022-10-01T15:15:58;2.28;;;1.65;;
22211;SDS011;11275;52.488;13.462;2022-10-01T15:18:25;2.20;;;1.42;;
22211;SDS011;11275;52.488;13.462;2022-10-01T15:21:04;3.10;;;1.80;;
22211;SDS011;11275;52.488;13.462;2022-10-01T15:23:32;1.83;;;1.33;;
22211;SDS011;11275;52.488;13.462;2022-10-01T15:26:01;2.60;;;1.67;;
22211;SDS011;11275;52.488;13.462;2022-10-01T15:28:31;2.80;;;1.53;;
22211;SDS011;11275;52.488;13.462;2022-10-01T15:31:01;1.60;;;1.25;;
22211;SDS011;11275;52.488;13.462;2022-10-01T15:33:32;2.38;;;1.33;;
22211;SDS011;11275;52.488;13.462;2022-10-01T15:36:12;1.58;;;1.42;;
22211;SDS011;11275;52.488;13.462;2022-10-01T15:38:42;1.85;;;1.20;;
22211;SDS011;11275;52.488;13.462;2022-10-01T15:41:16;2.85;;;1.30;;
22211;SDS011;11275;52.488;13.462;2022-10-01T15:43:46;1.60;;;1.17;;
22211;SDS011;11275;52.488;13.462;2022-10-01T15:51:46;1.40;;;1.00;;
22211;SDS011;11275;52.488;13.462;2022-10-01T15:54:33;2.78;;;1.73;;
22211;SDS011;11275;52.488;13.462;2022-10-01T15:57:00;2.50;;;1.60;;
22211;SDS011;11275;52.488;13.462;2022-10-01T15:59:26;2.47;;;1.52;;
22211;SDS011;11275;52.488;13.462;2022-10-01T16:01:52;2.50;;;1.42;;
22211;SDS011;11275;52.488;13.462;2022-10-01T16:04:18;1.63;;;1.40;;
22211;SDS011;11275;52.488;13.462;2022-10-01T16:06:48;2.05;;;1.40;;
22211;SDS011;11275;52.488;13.462;2022-10-01T16:14:35;2.75;;;1.40;;
22211;SDS011;11275;52.488;13.462;2022-10-01T16:19:45;3.78;;;1.30;;
22211;SDS011;11275;52.488;13.462;2022-10-01T16:25:04;3.50;;;1.95;;
22211;SDS011;11275;52.488;13.462;2022-10-01T16:27:47;3.55;;;2.30;;
22211;SDS011;11275;52.488;13.462;2022-10-01T16:32:51;2.60;;;1.95;;
22211;SDS011;11275;52.488;13.462;2022-10-01T16:35:24;3.28;;;2.50;;
22211;SDS011;11275;52.488;13.462;2022-10-01T16:37:52;3.38;;;2.22;;
22211;SDS011;11275;52.488;13.462;2022-10-01T16:40:21;4.30;;;2.15;;
22211;SDS011;11275;52.488;13.462;2022-10-01T16:42:49;3.72;;;2.40;;
22211;SDS011;11275;52.488;13.462;2022-10-01T16:45:25;2.88;;;1.90;;
22211;SDS011;11275;52.488;13.462;2022-10-01T16:48:01;3.13;;;1.70;;
22211;SDS011;11275;52.488;13.462;2022-10-01T16:50:33;4.68;;;1.90;;
22211;SDS011;11275;52.488;13.462;2022-10-01T16:52:59;2.00;;;1.80;;
22211;SDS011;11275;52.488;13.462;2022-10-01T16:55:30;3.53;;;1.65;;
22211;SDS011;11275;52.488;13.462;2022-10-01T16:58:00;2.33;;;2.00;;
22211;SDS011;11275;52.488;13.462;2022-10-01T17:00:27;2.78;;;2.15;;
22211;SDS011;11275;52.488;13.462;2022-10-01T17:02:53;4.00;;;1.95;;
22211;SDS011;11275;52.488;13.462;2022-10-01T17:07:50;2.28;;;2.03;;
22211;SDS011;11275;52.488;13.462;2022-10-01T17:10:17;2.22;;;1.88;;
22211;SDS011;11275;52.488;13.462;2022-10-01T17:12:44;2.25;;;2.00;;
22211;SDS011;11275;52.488;13.462;2022-10-01T17:15:12;4.25;;;2.22;;
22211;SDS011;11275;52.488;13.462;2022-10-01T17:17:41;2.70;;;2.15;;
22211;SDS011;11275;52.488;13.462;2022-10-01T17:20:07;2.35;;;1.80;;
22211;SDS011;11275;52.488;13.462;2022-10-01T17:22:33;2.08;;;1.85;;
22211;SDS011;11275;52.488;13.462;2022-10-01T17:24:59;2.67;;;1.90;;
22211;SDS011;11275;52.488;13.462;2022-10-01T17:27:24;2.97;;;2.40;;